sensor_id;sensor_type;location;lat;lon;timestamp;P1;durP1;ratioP1;P2;durP2;ratioP2
71626;SDS011;59475;52.464;13.590;2023-04-01T00:00:31;4.03;;;2.37;;
71626;SDS011;59475;52.464;13.590;2023-04-01T00:02:57;3.50;;;2.30;;
71626;SDS011;59475;52.464;13.590;2023-04-01T00:05:22;6.10;;;2.70;;
71626;SDS011;59475;52.464;13.590;2023-04-01T00:07:49;3.93;;;2.53;;
71626;SDS011;59475;52.464;13.590;2023-04-01T00:10:15;4.03;;;2.55;;
71626;SDS011;59475;52.464;13.590;2023-04-01T00:12:41;5.18;;;2.30;;
71626;SDS011;59475;52.464;13.590;2023-04-01T00:15:08;4.87;;;2.50;;
71626;SDS011;59475;52.464;13.590;2023-04-01T00:17:35;2.67;;;2.08;;
71626;SDS011;59475;52.464;13.590;2023-04-01T00:20:01;4.37;;;2.50;;
71626;SDS011;59475;52.464;13.590;2023-04-01T00:22:27;4.35;;;2.17;;
71626;SDS011;59475;52.464;13.590;2023-04-01T00:24:53;5.17;;;2.60;;
71626;SDS011;59475;52.464;13.590;2023-04-01T00:27:18;4.47;;;2.10;;
71626;SDS011;59475;52.464;13.590;2023-04-01T00:29:45;3.77;;;2.60;;
71626;SDS011;59475;52.464;13.590;2023-04-01T00:32:11;3.92;;;2.33;;
71626;SDS011;59475;52.464;13.590;2023-04-01T00:34:37;4.50;;;2.43;;
71626;SDS011;59475;52.464;13.590;2023-04-01T00:37:03;6.43;;;2.70;;
71626;SDS011;59475;52.464;13.590;2023-04-01T00:39:29;3.42;;;2.67;;
71626;SDS011;59475;52.464;13.590;2023-04-01T00:41:56;6.53;;;2.60;;
71626;SDS011;59475;52.464;13.590;2023-04-01T00:44:24;2.90;;;2.47;;
71626;SDS011;59475;52.464;13.590;2023-04-01T00:46:51;5.65;;;2.80;;
71626;SDS011;59475;52.464;13.590;2023-04-01T00:49:22;5.95;;;3.03;;
71626;SDS011;59475;52.464;13.590;2023-04-01T00:51:51;3.00;;;2.30;;
71626;SDS011;59475;52.464;13.590;2023-04-01T00:54:20;4.57;;;2.40;;
71626;SDS011;59475;52.464;13.590;2023-04-01T00:56:58;5.53;;;2.85;;
71626;SDS011;59475;52.464;13.590;2023-04-01T00:59:39;4.85;;;2.55;;
71626;SDS011;59475;52.464;13.590;2023-04-01T01:02:08;4.18;;;2.60;;
71626;SDS011;59475;52.464;13.590;2023-04-01T01:04:36;3.10;;;2.70;;
71626;SDS011;59475;52.464;13.590;2023-04-01T01:12:18;4.70;;;2.65;;
71626;SDS011;59475;52.464;13.590;2023-04-01T01:36:59;7.45;;;3.40;;
71626;SDS011;59475;52.464;13.590;2023-04-01T01:39:31;4.60;;;2.78;;
71626;SDS011;59475;52.464;13.590;2023-04-01T01:42:01;4.03;;;2.75;;
71626;SDS011;59475;52.464;13.590;2023-04-01T01:44:29;5.10;;;2.80;;
71626;SDS011;59475;52.464;13.590;2023-04-01T01:46:57;6.65;;;3.28;;
71626;SDS011;59475;52.464;13.590;2023-04-01T01:49:23;7.45;;;3.95;;
71626;SDS011;59475;52.464;13.590;2023-04-01T01:51:50;5.55;;;3.40;;
71626;SDS011;59475;52.464;13.590;2023-04-01T01:54:16;7.17;;;4.00;;
71626;SDS011;59475;52.464;13.590;2023-04-01T01:56:43;8.10;;;3.80;;
71626;SDS011;59475;52.464;13.590;2023-04-01T01:59:12;6.13;;;3.85;;
71626;SDS011;59475;52.464;13.590;2023-04-01T02:01:40;8.25;;;3.80;;
71626;SDS011;59475;52.464;13.590;2023-04-01T02:04:09;6.03;;;4.00;;
71626;SDS011;59475;52.464;13.590;2023-04-01T02:06:37;5.75;;;3.78;;
71626;SDS011;59475;52.464;13.590;2023-04-01T02:09:07;7.35;;;3.90;;
71626;SDS011;59475;52.464;13.590;2023-04-01T02:11:42;7.43;;;3.85;;
71626;SDS011;59475;52.464;13.590;2023-04-01T02:16:57;6.60;;;4.17;;
71626;SDS011;59475;52.464;13.590;2023-04-01T02:19:39;6.32;;;4.00;;
71626;SDS011;59475;52.464;13.590;2023-04-01T02:22:29;5.93;;;4.40;;
71626;SDS011;59475;52.464;13.590;2023-04-01T02:24:58;6.45;;;4.15;;
71626;SDS011;59475;52.464;13.590;2023-04-01T02:27:27;8.35;;;4.72;;
71626;SDS011;59475;52.464;13.590;2023-04-01T02:29:53;5.53;;;4.33;;
71626;SDS011;59475;52.464;13.590;2023-04-01T02:32:19;6.57;;;3.93;;
71626;SDS011;59475;52.464;13.590;2023-04-01T02:34:45;7.30;;;4.70;;
71626;SDS011;59475;52.464;13.590;2023-04-01T02:37:12;6.78;;;4.40;;
71626;SDS011;59475;52.464;13.590;2023-04-01T02:39:38;8.80;;;4.63;;
71626;SDS011;59475;52.464;13.590;2023-04-01T02:42:04;7.18;;;3.75;;
71626;SDS011;59475;52.464;13.590;2023-04-01T02:44:30;16.67;;;5.00;;
71626;SDS011;59475;52.464;13.590;2023-04-01T02:46:56;6.18;;;4.80;;
71626;SDS011;59475;52.464;13.590;2023-04-01T02:49:21;5.93;;;3.43;;
71626;SDS011;59475;52.464;13.590;2023-04-01T02:51:46;7.83;;;4.30;;
71626;SDS011;59475;52.464;13.590;2023-04-01T02:54:12;7.70;;;4.23;;
71626;SDS011;59475;52.464;13.590;2023-04-01T02:56:38;7.13;;;4.47;;
71626;SDS011;59475;52.464;13.590;2023-04-01T02:59:03;8.33;;;4.70;;
71626;SDS011;59475;52.464;13.590;2023-04-01T03:01:29;6.90;;;4.35;;
71626;SDS011;59475;52.464;13.590;2023-04-01T03:03:54;7.13;;;4.60;;
71626;SDS011;59475;52.464;13.590;2023-04-01T03:06:20;8.40;;;4.50;;
71626;SDS011;59475;52.464;13.590;2023-04-01T03:08:45;8.43;;;4.20;;
71626;SDS011;59475;52.464;13.590;2023-04-01T03:11:11;6.53;;;4.40;;
71626;SDS011;59475;52.464;13.590;2023-04-01T03:13:36;8.03;;;4.53;;
71626;SDS011;59475;52.464;13.590;2023-04-01T03:16:02;6.63;;;4.90;;
71626;SDS011;59475;52.464;13.590;2023-04-01T03:18:28;7.88;;;4.95;;
71626;SDS011;59475;52.464;13.590;2023-04-01T03:20:54;7.77;;;4.97;;
71626;SDS011;59475;52.464;13.590;2023-04-01T03:23:20;5.40;;;3.90;;
71626;SDS011;59475;52.464;13.590;2023-04-01T03:25:46;6.33;;;4.37;;
71626;SDS011;59475;52.464;13.590;2023-04-01T03:28:12;8.23;;;4.35;;
71626;SDS011;59475;52.464;13.590;2023-04-01T03:30:38;9.52;;;4.88;;
71626;SDS011;59475;52.464;13.590;2023-04-01T03:33:04;6.88;;;4.32;;
71626;SDS011;59475;52.464;13.590;2023-04-01T03:35:30;7.10;;;4.40;;
71626;SDS011;59475;52.464;13.590;2023-04-01T03:37:55;5.65;;;4.07;;
71626;SDS011;59475;52.464;13.590;2023-04-01T03:40:21;7.97;;;4.03;;
71626;SDS011;59475;52.464;13.590;2023-04-01T03:42:47;6.35;;;3.78;;
71626;SDS011;59475;52.464;13.590;2023-04-01T03:45:13;6.87;;;4.10;;
71626;SDS011;59475;52.464;13.590;2023-04-01T03:47:38;7.53;;;3.80;;
71626;SDS011;59475;52.464;13.590;2023-04-01T03:50:05;8.95;;;3.78;;
71626;SDS011;59475;52.464;13.590;2023-04-01T03:52:32;6.45;;;3.72;;
71626;SDS011;59475;52.464;13.590;2023-04-01T03:54:57;7.03;;;3.92;;
71626;SDS011;59475;52.464;13.590;2023-04-01T03:57:23;7.07;;;4.03;;
71626;SDS011;59475;52.464;13.590;2023-04-01T03:59:48;7.13;;;3.30;;
71626;SDS011;59475;52.464;13.590;2023-04-01T04:02:14;5.53;;;3.60;;
71626;SDS011;59475;52.464;13.590;2023-04-01T04:04:39;7.00;;;4.22;;
71626;SDS011;59475;52.464;13.590;2023-04-01T04:07:06;4.20;;;3.40;;
71626;SDS011;59475;52.464;13.590;2023-04-01T04:09:31;8.05;;;3.75;;
71626;SDS011;59475;52.464;13.590;2023-04-01T04:11:58;7.97;;;3.75;;
71626;SDS011;59475;52.464;13.590;2023-04-01T04:14:24;8.55;;;4.22;;
71626;SDS011;59475;52.464;13.590;2023-04-01T04:16:49;5.93;;;4.03;;
71626;SDS011;59475;52.464;13.590;2023-04-01T04:19:15;4.37;;;3.50;;
71626;SDS011;59475;52.464;13.590;2023-04-01T04:21:40;5.87;;;4.20;;
71626;SDS011;59475;52.464;13.590;2023-04-01T04:24:06;8.10;;;4.03;;
71626;SDS011;59475;52.464;13.590;2023-04-01T04:26:32;8.55;;;4.10;;
71626;SDS011;59475;52.464;13.590;2023-04-01T04:28:57;5.57;;;3.60;;
71626;SDS011;59475;52.464;13.590;2023-04-01T04:31:23;7.87;;;3.47;;
71626;SDS011;59475;52.464;13.590;2023-04-01T04:33:50;7.38;;;3.70;;
71626;SDS011;59475;52.464;13.590;2023-04-01T04:36:16;7.15;;;3.53;;
71626;SDS011;59475;52.464;13.590;2023-04-01T04:38:42;7.70;;;3.70;;
71626;SDS011;59475;52.464;13.590;2023-04-01T04:41:08;6.33;;;3.23;;
71626;SDS011;59475;52.464;13.590;2023-04-01T04:43:35;7.60;;;3.42;;
71626;SDS011;59475;52.464;13.590;2023-04-01T04:46:04;7.70;;;3.53;;
71626;SDS011;59475;52.464;13.590;2023-04-01T04:48:31;4.85;;;3.30;;
71626;SDS011;59475;52.464;13.590;2023-04-01T04:50:56;7.13;;;3.87;;
71626;SDS011;59475;52.464;13.590;2023-04-01T04:53:21;10.47;;;3.93;;
71626;SDS011;59475;52.464;13.590;2023-04-01T04:55:47;7.70;;;3.23;;
71626;SDS011;59475;52.464;13.590;2023-04-01T04:58:14;8.63;;;3.40;;
71626;SDS011;59475;52.464;13.590;2023-04-01T05:00:40;5.93;;;2.85;;
71626;SDS011;59475;52.464;13.590;2023-04-01T05:03:06;12.90;;;5.27;;
71626;SDS011;59475;52.464;13.590;2023-04-01T05:05:31;8.93;;;3.50;;
71626;SDS011;59475;52.464;13.590;2023-04-01T05:07:57;5.53;;;3.50;;
71626;SDS011;59475;52.464;13.590;2023-04-01T05:10:22;7.10;;;3.47;;
71626;SDS011;59475;52.464;13.590;2023-04-01T05:12:48;4.10;;;2.80;;
71626;SDS011;59475;52.464;13.590;2023-04-01T05:15:13;7.47;;;3.17;;
71626;SDS011;59475;52.464;13.590;2023-04-01T05:17:40;6.50;;;4.00;;
71626;SDS011;59475;52.464;13.590;2023-04-01T05:20:05;6.53;;;3.40;;
71626;SDS011;59475;52.464;13.590;2023-04-01T05:22:31;5.60;;;3.08;;
71626;SDS011;59475;52.464;13.590;2023-04-01T05:24:57;8.20;;;4.00;;
71626;SDS011;59475;52.464;13.590;2023-04-01T05:27:22;7.90;;;3.60;;
71626;SDS011;59475;52.464;13.590;2023-04-01T05:29:47;7.23;;;3.90;;
71626;SDS011;59475;52.464;13.590;2023-04-01T05:32:13;5.83;;;3.50;;
71626;SDS011;59475;52.464;13.590;2023-04-01T05:34:38;6.28;;;3.45;;
71626;SDS011;59475;52.464;13.590;2023-04-01T05:37:04;6.67;;;3.10;;
71626;SDS011;59475;52.464;13.590;2023-04-01T05:39:29;9.90;;;4.00;;
71626;SDS011;59475;52.464;13.590;2023-04-01T05:41:55;8.20;;;3.77;;
71626;SDS011;59475;52.464;13.590;2023-04-01T05:44:20;10.18;;;3.45;;
71626;SDS011;59475;52.464;13.590;2023-04-01T05:46:45;6.90;;;3.53;;
71626;SDS011;59475;52.464;13.590;2023-04-01T05:49:11;5.30;;;3.73;;
71626;SDS011;59475;52.464;13.590;2023-04-01T05:51:36;7.03;;;4.37;;
71626;SDS011;59475;52.464;13.590;2023-04-01T05:54:03;7.85;;;4.15;;
71626;SDS011;59475;52.464;13.590;2023-04-01T05:56:29;8.10;;;3.67;;
71626;SDS011;59475;52.464;13.590;2023-04-01T05:58:55;10.30;;;3.58;;
71626;SDS011;59475;52.464;13.590;2023-04-01T06:01:20;8.17;;;3.87;;
71626;SDS011;59475;52.464;13.590;2023-04-01T06:03:46;10.30;;;4.10;;
71626;SDS011;59475;52.464;13.590;2023-04-01T06:06:29;7.30;;;3.87;;
71626;SDS011;59475;52.464;13.590;2023-04-01T06:08:58;9.10;;;3.85;;
71626;SDS011;59475;52.464;13.590;2023-04-01T06:11:33;11.88;;;4.45;;
71626;SDS011;59475;52.464;13.590;2023-04-01T06:14:21;8.05;;;3.58;;
71626;SDS011;59475;52.464;13.590;2023-04-01T06:19:56;6.22;;;3.67;;
71626;SDS011;59475;52.464;13.590;2023-04-01T06:25:18;8.07;;;4.10;;
71626;SDS011;59475;52.464;13.590;2023-04-01T06:46:59;10.35;;;4.20;;
71626;SDS011;59475;52.464;13.590;2023-04-01T06:52:31;7.78;;;4.28;;
71626;SDS011;59475;52.464;13.590;2023-04-01T06:55:47;7.10;;;3.95;;
71626;SDS011;59475;52.464;13.590;2023-04-01T06:57:58;8.90;;;4.00;;
71626;SDS011;59475;52.464;13.590;2023-04-01T07:00:43;8.43;;;4.38;;
71626;SDS011;59475;52.464;13.590;2023-04-01T07:05:45;7.35;;;3.45;;
71626;SDS011;59475;52.464;13.590;2023-04-01T07:08:12;8.07;;;3.70;;
71626;SDS011;59475;52.464;13.590;2023-04-01T07:11:04;10.10;;;4.07;;
71626;SDS011;59475;52.464;13.590;2023-04-01T07:14:15;9.32;;;4.18;;
71626;SDS011;59475;52.464;13.590;2023-04-01T07:16:34;6.20;;;3.80;;
71626;SDS011;59475;52.464;13.590;2023-04-01T07:21:48;8.33;;;4.20;;
71626;SDS011;59475;52.464;13.590;2023-04-01T07:24:27;7.90;;;4.07;;
71626;SDS011;59475;52.464;13.590;2023-04-01T07:26:58;10.65;;;3.78;;
71626;SDS011;59475;52.464;13.590;2023-04-01T07:29:24;8.75;;;3.75;;
71626;SDS011;59475;52.464;13.590;2023-04-01T07:34:35;5.27;;;3.30;;
71626;SDS011;59475;52.464;13.590;2023-04-01T07:37:28;7.78;;;3.45;;
71626;SDS011;59475;52.464;13.590;2023-04-01T07:50:51;9.85;;;5.03;;
71626;SDS011;59475;52.464;13.590;2023-04-01T07:58:55;5.57;;;3.63;;
71626;SDS011;59475;52.464;13.590;2023-04-01T08:02:32;7.83;;;4.00;;
71626;SDS011;59475;52.464;13.590;2023-04-01T08:04:59;7.63;;;3.40;;
71626;SDS011;59475;52.464;13.590;2023-04-01T08:07:30;5.63;;;3.60;;
71626;SDS011;59475;52.464;13.590;2023-04-01T08:13:10;5.85;;;3.70;;
71626;SDS011;59475;52.464;13.590;2023-04-01T08:21:32;4.68;;;3.55;;
71626;SDS011;59475;52.464;13.590;2023-04-01T08:24:46;5.05;;;3.40;;
71626;SDS011;59475;52.464;13.590;2023-04-01T08:26:55;4.25;;;3.50;;
71626;SDS011;59475;52.464;13.590;2023-04-01T08:30:15;5.27;;;4.23;;
71626;SDS011;59475;52.464;13.590;2023-04-01T08:32:28;7.57;;;3.90;;
71626;SDS011;59475;52.464;13.590;2023-04-01T08:35:25;8.30;;;4.60;;
71626;SDS011;59475;52.464;13.590;2023-04-01T08:37:53;8.45;;;4.55;;
71626;SDS011;59475;52.464;13.590;2023-04-01T08:46:25;11.82;;;6.82;;
71626;SDS011;59475;52.464;13.590;2023-04-01T08:56:56;16.17;;;8.30;;
71626;SDS011;59475;52.464;13.590;2023-04-01T09:05:21;15.30;;;7.80;;
71626;SDS011;59475;52.464;13.590;2023-04-01T09:08:15;16.25;;;8.18;;
71626;SDS011;59475;52.464;13.590;2023-04-01T09:13:56;13.48;;;7.30;;
71626;SDS011;59475;52.464;13.590;2023-04-01T09:16:58;13.43;;;6.97;;
71626;SDS011;59475;52.464;13.590;2023-04-01T09:19:59;10.90;;;5.47;;
71626;SDS011;59475;52.464;13.590;2023-04-01T09:22:37;10.23;;;6.10;;
71626;SDS011;59475;52.464;13.590;2023-04-01T09:28:10;11.07;;;6.65;;
71626;SDS011;59475;52.464;13.590;2023-04-01T09:30:48;10.00;;;6.70;;
71626;SDS011;59475;52.464;13.590;2023-04-01T09:44:58;10.63;;;7.28;;
71626;SDS011;59475;52.464;13.590;2023-04-01T09:47:34;9.03;;;5.90;;
71626;SDS011;59475;52.464;13.590;2023-04-01T09:58:01;11.48;;;7.20;;
71626;SDS011;59475;52.464;13.590;2023-04-01T10:03:26;13.02;;;7.47;;
71626;SDS011;59475;52.464;13.590;2023-04-01T10:24:33;8.95;;;6.25;;
71626;SDS011;59475;52.464;13.590;2023-04-01T10:36:12;10.75;;;7.75;;
71626;SDS011;59475;52.464;13.590;2023-04-01T10:38:36;12.40;;;7.75;;
71626;SDS011;59475;52.464;13.590;2023-04-01T11:37:12;4.82;;;3.63;;
71626;SDS011;59475;52.464;13.590;2023-04-01T11:40:07;6.10;;;3.45;;
71626;SDS011;59475;52.464;13.590;2023-04-01T11:46:37;3.53;;;3.13;;
71626;SDS011;59475;52.464;13.590;2023-04-01T11:49:21;4.45;;;3.30;;
71626;SDS011;59475;52.464;13.590;2023-04-01T12:19:43;4.80;;;3.63;;
71626;SDS011;59475;52.464;13.590;2023-04-01T12:28:05;3.47;;;2.97;;
71626;SDS011;59475;52.464;13.590;2023-04-01T12:30:56;4.55;;;3.08;;
71626;SDS011;59475;52.464;13.590;2023-04-01T12:33:37;5.97;;;4.25;;
71626;SDS011;59475;52.464;13.590;2023-04-01T12:55:51;5.50;;;4.00;;
71626;SDS011;59475;52.464;13.590;2023-04-01T13:07:18;7.13;;;4.97;;
71626;SDS011;59475;52.464;13.590;2023-04-01T13:09:45;3.97;;;2.63;;
71626;SDS011;59475;52.464;13.590;2023-04-01T13:17:59;5.97;;;3.35;;
71626;SDS011;59475;52.464;13.590;2023-04-01T13:25:39;5.38;;;3.92;;
71626;SDS011;59475;52.464;13.590;2023-04-01T13:28:22;4.13;;;3.38;;
71626;SDS011;59475;52.464;13.590;2023-04-01T13:31:02;5.20;;;3.95;;
71626;SDS011;59475;52.464;13.590;2023-04-01T13:39:32;3.63;;;3.10;;
71626;SDS011;59475;52.464;13.590;2023-04-01T13:42:21;4.50;;;3.80;;
71626;SDS011;59475;52.464;13.590;2023-04-01T13:53:16;5.25;;;3.15;;
71626;SDS011;59475;52.464;13.590;2023-04-01T14:01:23;4.70;;;2.60;;
71626;SDS011;59475;52.464;13.590;2023-04-01T14:04:10;5.37;;;3.73;;
71626;SDS011;59475;52.464;13.590;2023-04-01T14:12:10;3.38;;;2.65;;
71626;SDS011;59475;52.464;13.590;2023-04-01T14:39:43;5.50;;;4.65;;
71626;SDS011;59475;52.464;13.590;2023-04-01T14:56:43;5.68;;;4.32;;
71626;SDS011;59475;52.464;13.590;2023-04-01T15:08:00;11.48;;;5.95;;
71626;SDS011;59475;52.464;13.590;2023-04-01T15:10:34;6.78;;;4.28;;
71626;SDS011;59475;52.464;13.590;2023-04-01T15:22:03;5.38;;;4.30;;
71626;SDS011;59475;52.464;13.590;2023-04-01T15:46:16;3.58;;;2.90;;
71626;SDS011;59475;52.464;13.590;2023-04-01T15:51:50;4.93;;;3.45;;
71626;SDS011;59475;52.464;13.590;2023-04-01T15:57:24;5.90;;;3.77;;
71626;SDS011;59475;52.464;13.590;2023-04-01T16:26:50;4.57;;;3.95;;
71626;SDS011;59475;52.464;13.590;2023-04-01T16:32:54;4.90;;;3.38;;
71626;SDS011;59475;52.464;13.590;2023-04-01T16:38:31;5.57;;;3.40;;
71626;SDS011;59475;52.464;13.590;2023-04-01T16:43:51;5.35;;;4.80;;
71626;SDS011;59475;52.464;13.590;2023-04-01T16:46:26;5.30;;;4.35;;
71626;SDS011;59475;52.464;13.590;2023-04-01T17:13:33;5.85;;;4.35;;
71626;SDS011;59475;52.464;13.590;2023-04-01T17:30:55;6.53;;;5.80;;
71626;SDS011;59475;52.464;13.590;2023-04-01T17:50:23;6.28;;;4.25;;
71626;SDS011;59475;52.464;13.590;2023-04-01T17:53:17;5.28;;;4.03;;
71626;SDS011;59475;52.464;13.590;2023-04-01T18:06:29;5.47;;;4.07;;
71626;SDS011;59475;52.464;13.590;2023-04-01T18:11:34;8.73;;;4.97;;
71626;SDS011;59475;52.464;13.590;2023-04-01T18:14:42;8.60;;;5.18;;
71626;SDS011;59475;52.464;13.590;2023-04-01T18:26:14;7.53;;;4.93;;
71626;SDS011;59475;52.464;13.590;2023-04-01T18:28:54;4.93;;;3.63;;
71626;SDS011;59475;52.464;13.590;2023-04-01T18:31:24;6.90;;;4.35;;
71626;SDS011;59475;52.464;13.590;2023-04-01T18:34:01;7.68;;;3.70;;
71626;SDS011;59475;52.464;13.590;2023-04-01T18:36:51;4.70;;;3.42;;
71626;SDS011;59475;52.464;13.590;2023-04-01T18:39:33;5.07;;;3.80;;
71626;SDS011;59475;52.464;13.590;2023-04-01T18:42:19;5.18;;;4.15;;
71626;SDS011;59475;52.464;13.590;2023-04-01T18:45:17;4.88;;;3.40;;
71626;SDS011;59475;52.464;13.590;2023-04-01T18:47:47;5.20;;;3.70;;
71626;SDS011;59475;52.464;13.590;2023-04-01T18:56:26;5.85;;;3.40;;
71626;SDS011;59475;52.464;13.590;2023-04-01T19:02:16;4.20;;;3.45;;
71626;SDS011;59475;52.464;13.590;2023-04-01T19:13:02;5.35;;;3.63;;
71626;SDS011;59475;52.464;13.590;2023-04-01T19:19:00;4.78;;;3.63;;
71626;SDS011;59475;52.464;13.590;2023-04-01T19:21:37;6.50;;;4.70;;
71626;SDS011;59475;52.464;13.590;2023-04-01T19:26:54;7.03;;;3.42;;
71626;SDS011;59475;52.464;13.590;2023-04-01T19:37:50;6.00;;;3.80;;
71626;SDS011;59475;52.464;13.590;2023-04-01T19:42:50;5.95;;;3.75;;
71626;SDS011;59475;52.464;13.590;2023-04-01T20:01:08;5.43;;;4.10;;
71626;SDS011;59475;52.464;13.590;2023-04-01T20:03:50;7.93;;;5.40;;
71626;SDS011;59475;52.464;13.590;2023-04-01T20:11:41;9.75;;;6.05;;
71626;SDS011;59475;52.464;13.590;2023-04-01T20:17:50;8.07;;;5.05;;
71626;SDS011;59475;52.464;13.590;2023-04-01T20:20:03;6.75;;;4.80;;
71626;SDS011;59475;52.464;13.590;2023-04-01T20:27:49;6.77;;;4.93;;
71626;SDS011;59475;52.464;13.590;2023-04-01T20:33:31;6.55;;;3.92;;
71626;SDS011;59475;52.464;13.590;2023-04-01T20:41:26;6.70;;;4.67;;
71626;SDS011;59475;52.464;13.590;2023-04-01T20:44:13;6.68;;;4.35;;
71626;SDS011;59475;52.464;13.590;2023-04-01T20:46:48;6.57;;;3.90;;
71626;SDS011;59475;52.464;13.590;2023-04-01T20:58:01;8.27;;;5.93;;
71626;SDS011;59475;52.464;13.590;2023-04-01T21:00:33;7.60;;;5.63;;
71626;SDS011;59475;52.464;13.590;2023-04-01T21:11:22;8.10;;;5.45;;
71626;SDS011;59475;52.464;13.590;2023-04-01T21:17:08;6.43;;;3.92;;
71626;SDS011;59475;52.464;13.590;2023-04-01T21:28:58;6.38;;;4.72;;
71626;SDS011;59475;52.464;13.590;2023-04-01T21:31:39;11.82;;;5.85;;
71626;SDS011;59475;52.464;13.590;2023-04-01T21:39:52;9.15;;;5.28;;
71626;SDS011;59475;52.464;13.590;2023-04-01T21:48:02;9.50;;;4.80;;
71626;SDS011;59475;52.464;13.590;2023-04-01T22:05:25;6.57;;;4.50;;
71626;SDS011;59475;52.464;13.590;2023-04-01T22:19:36;10.67;;;3.10;;
71626;SDS011;59475;52.464;13.590;2023-04-01T22:24:27;8.32;;;4.65;;
71626;SDS011;59475;52.464;13.590;2023-04-01T22:35:33;17.75;;;4.05;;
71626;SDS011;59475;52.464;13.590;2023-04-01T22:43:01;7.00;;;3.92;;
71626;SDS011;59475;52.464;13.590;2023-04-01T22:51:15;4.97;;;3.30;;
71626;SDS011;59475;52.464;13.590;2023-04-01T22:56:21;5.60;;;4.07;;
71626;SDS011;59475;52.464;13.590;2023-04-01T22:59:04;7.23;;;3.57;;
71626;SDS011;59475;52.464;13.590;2023-04-01T23:01:39;5.53;;;3.00;;
71626;SDS011;59475;52.464;13.590;2023-04-01T23:04:09;3.65;;;2.63;;
71626;SDS011;59475;52.464;13.590;2023-04-01T23:06:42;5.45;;;3.78;;
71626;SDS011;59475;52.464;13.590;2023-04-01T23:09:15;4.10;;;3.13;;
71626;SDS011;59475;52.464;13.590;2023-04-01T23:17:30;4.93;;;2.60;;
71626;SDS011;59475;52.464;13.590;2023-04-01T23:20:15;5.90;;;3.20;;
71626;SDS011;59475;52.464;13.590;2023-04-01T23:25:30;7.43;;;3.73;;
71626;SDS011;59475;52.464;13.590;2023-04-01T23:30:51;5.22;;;3.55;;
71626;SDS011;59475;52.464;13.590;2023-04-01T23:33:30;4.00;;;2.47;;
71626;SDS011;59475;52.464;13.590;2023-04-01T23:36:09;7.85;;;2.92;;
71626;SDS011;59475;52.464;13.590;2023-04-01T23:38:37;3.73;;;3.07;;
71626;SDS011;59475;52.464;13.590;2023-04-01T23:41:04;3.35;;;2.58;;
71626;SDS011;59475;52.464;13.590;2023-04-01T23:43:32;6.65;;;2.40;;
71626;SDS011;59475;52.464;13.590;2023-04-01T23:46:02;4.53;;;3.35;;
71626;SDS011;59475;52.464;13.590;2023-04-01T23:48:39;4.78;;;4.10;;
71626;SDS011;59475;52.464;13.590;2023-04-01T23:51:28;4.17;;;3.27;;
71626;SDS011;59475;52.464;13.590;2023-04-01T23:54:03;8.00;;;3.45;;
71626;SDS011;59475;52.464;13.590;2023-04-01T23:56:41;2.85;;;2.40;;
71626;SDS011;59475;52.464;13.590;2023-04-01T23:59:27;4.18;;;3.05;;
